sensor_id;sensor_type;location;lat;lon;timestamp;temperature;humidity
12887;DHT22;6511;49.746;6.094;2023-03-03T00:02:06;-1.40;99.90
12887;DHT22;6511;49.746;6.094;2023-03-03T00:04:32;-1.40;99.90
12887;DHT22;6511;49.746;6.094;2023-03-03T00:06:58;-1.40;99.90
12887;DHT22;6511;49.746;6.094;2023-03-03T00:09:23;-1.40;99.90
12887;DHT22;6511;49.746;6.094;2023-03-03T00:11:53;-1.50;99.90
12887;DHT22;6511;49.746;6.094;2023-03-03T00:14:28;-1.60;99.90
12887;DHT22;6511;49.746;6.094;2023-03-03T00:16:56;-1.80;99.90
12887;DHT22;6511;49.746;6.094;2023-03-03T00:19:22;-2.00;99.90
12887;DHT22;6511;49.746;6.094;2023-03-03T00:21:49;-2.00;99.90
12887;DHT22;6511;49.746;6.094;2023-03-03T00:24:16;-2.00;99.90
12887;DHT22;6511;49.746;6.094;2023-03-03T00:26:52;-2.00;99.90
12887;DHT22;6511;49.746;6.094;2023-03-03T00:29:39;-1.80;99.90
12887;DHT22;6511;49.746;6.094;2023-03-03T00:34:36;-1.80;99.90
12887;DHT22;6511;49.746;6.094;2023-03-03T00:37:02;-1.90;99.90
12887;DHT22;6511;49.746;6.094;2023-03-03T00:39:32;-1.90;99.90
12887;DHT22;6511;49.746;6.094;2023-03-03T00:42:00;-2.00;99.90
12887;DHT22;6511;49.746;6.094;2023-03-03T00:47:28;-2.20;99.90
12887;DHT22;6511;49.746;6.094;2023-03-03T00:50:26;-2.30;99.90
12887;DHT22;6511;49.746;6.094;2023-03-03T00:53:02;-2.30;99.90
12887;DHT22;6511;49.746;6.094;2023-03-03T00:55:28;-2.30;99.90
12887;DHT22;6511;49.746;6.094;2023-03-03T00:57:54;-2.20;99.90
12887;DHT22;6511;49.746;6.094;2023-03-03T01:00:19;-2.20;99.90
12887;DHT22;6511;49.746;6.094;2023-03-03T01:02:45;-2.30;99.90
12887;DHT22;6511;49.746;6.094;2023-03-03T01:05:13;-2.30;99.90
12887;DHT22;6511;49.746;6.094;2023-03-03T01:07:39;-2.40;99.90
12887;DHT22;6511;49.746;6.094;2023-03-03T01:10:05;-2.40;99.90
12887;DHT22;6511;49.746;6.094;2023-03-03T01:12:31;-2.40;99.90
12887;DHT22;6511;49.746;6.094;2023-03-03T01:14:57;-2.40;99.90
12887;DHT22;6511;49.746;6.094;2023-03-03T01:17:22;-2.40;99.90
12887;DHT22;6511;49.746;6.094;2023-03-03T01:19:48;-2.50;99.90
12887;DHT22;6511;49.746;6.094;2023-03-03T01:22:14;-2.40;99.90
12887;DHT22;6511;49.746;6.094;2023-03-03T01:24:39;-2.40;99.90
12887;DHT22;6511;49.746;6.094;2023-03-03T01:27:05;-2.30;99.90
12887;DHT22;6511;49.746;6.094;2023-03-03T01:29:31;-2.30;99.90
12887;DHT22;6511;49.746;6.094;2023-03-03T01:31:56;-2.30;99.90
12887;DHT22;6511;49.746;6.094;2023-03-03T01:34:23;-2.10;99.90
12887;DHT22;6511;49.746;6.094;2023-03-03T01:36:48;-2.20;99.90
12887;DHT22;6511;49.746;6.094;2023-03-03T01:39:14;-2.30;99.90
12887;DHT22;6511;49.746;6.094;2023-03-03T01:41:39;-2.40;99.90
12887;DHT22;6511;49.746;6.094;2023-03-03T01:44:05;-2.50;99.90
12887;DHT22;6511;49.746;6.094;2023-03-03T01:46:47;-2.60;99.90
12887;DHT22;6511;49.746;6.094;2023-03-03T01:49:24;-2.70;99.90
12887;DHT22;6511;49.746;6.094;2023-03-03T01:51:57;-2.80;99.90
12887;DHT22;6511;49.746;6.094;2023-03-03T01:54:33;-2.80;99.90
12887;DHT22;6511;49.746;6.094;2023-03-03T01:57:03;-2.70;99.90
12887;DHT22;6511;49.746;6.094;2023-03-03T01:59:35;-2.70;99.90
12887;DHT22;6511;49.746;6.094;2023-03-03T02:02:03;-2.60;99.90
12887;DHT22;6511;49.746;6.094;2023-03-03T02:04:29;-2.60;99.90
12887;DHT22;6511;49.746;6.094;2023-03-03T02:07:01;-2.50;99.90
12887;DHT22;6511;49.746;6.094;2023-03-03T02:12:13;-2.40;99.90
12887;DHT22;6511;49.746;6.094;2023-03-03T02:14:40;-2.40;99.90
12887;DHT22;6511;49.746;6.094;2023-03-03T02:17:06;-2.60;99.90
12887;DHT22;6511;49.746;6.094;2023-03-03T02:22:22;-2.70;99.90
12887;DHT22;6511;49.746;6.094;2023-03-03T02:24:56;-2.80;99.90
12887;DHT22;6511;49.746;6.094;2023-03-03T02:27:25;-2.90;99.90
12887;DHT22;6511;49.746;6.094;2023-03-03T02:29:52;-3.10;99.90
12887;DHT22;6511;49.746;6.094;2023-03-03T02:32:17;-3.10;99.90
12887;DHT22;6511;49.746;6.094;2023-03-03T02:34:49;-3.10;99.90
12887;DHT22;6511;49.746;6.094;2023-03-03T02:37:15;-3.00;99.90
12887;DHT22;6511;49.746;6.094;2023-03-03T02:39:41;-3.00;99.90
12887;DHT22;6511;49.746;6.094;2023-03-03T02:42:12;-2.90;99.90
12887;DHT22;6511;49.746;6.094;2023-03-03T02:44:39;-3.00;99.90
12887;DHT22;6511;49.746;6.094;2023-03-03T02:47:04;-3.00;99.90
12887;DHT22;6511;49.746;6.094;2023-03-03T02:49:32;-3.00;99.90
12887;DHT22;6511;49.746;6.094;2023-03-03T02:51:59;-3.00;99.90
12887;DHT22;6511;49.746;6.094;2023-03-03T02:54:26;-2.90;99.90
12887;DHT22;6511;49.746;6.094;2023-03-03T02:56:52;-2.90;99.90
12887;DHT22;6511;49.746;6.094;2023-03-03T02:59:18;-2.90;99.90
12887;DHT22;6511;49.746;6.094;2023-03-03T03:01:45;-2.90;99.90
12887;DHT22;6511;49.746;6.094;2023-03-03T03:04:17;-3.00;99.90
12887;DHT22;6511;49.746;6.094;2023-03-03T03:06:43;-3.10;99.90
12887;DHT22;6511;49.746;6.094;2023-03-03T03:09:10;-3.10;99.90
12887;DHT22;6511;49.746;6.094;2023-03-03T03:11:36;-3.20;99.90
12887;DHT22;6511;49.746;6.094;2023-03-03T03:14:04;-3.30;99.90
12887;DHT22;6511;49.746;6.094;2023-03-03T03:16:30;-3.40;99.90
12887;DHT22;6511;49.746;6.094;2023-03-03T03:18:59;-3.60;99.90
12887;DHT22;6511;49.746;6.094;2023-03-03T03:21:25;-3.70;99.90
12887;DHT22;6511;49.746;6.094;2023-03-03T03:23:50;-3.60;99.90
12887;DHT22;6511;49.746;6.094;2023-03-03T03:26:16;-3.50;99.90
12887;DHT22;6511;49.746;6.094;2023-03-03T03:28:42;-3.40;99.90
12887;DHT22;6511;49.746;6.094;2023-03-03T03:31:08;-3.20;99.90
12887;DHT22;6511;49.746;6.094;2023-03-03T03:33:34;-3.20;99.90
12887;DHT22;6511;49.746;6.094;2023-03-03T03:36:00;-3.20;99.90
12887;DHT22;6511;49.746;6.094;2023-03-03T03:38:26;-3.10;99.90
12887;DHT22;6511;49.746;6.094;2023-03-03T03:40:54;-3.20;99.90
12887;DHT22;6511;49.746;6.094;2023-03-03T03:43:20;-3.20;99.90
12887;DHT22;6511;49.746;6.094;2023-03-03T03:45:46;-3.30;99.90
12887;DHT22;6511;49.746;6.094;2023-03-03T03:48:11;-3.50;99.90
12887;DHT22;6511;49.746;6.094;2023-03-03T03:50:37;-3.60;99.90
12887;DHT22;6511;49.746;6.094;2023-03-03T03:53:04;-3.60;99.90
12887;DHT22;6511;49.746;6.094;2023-03-03T03:55:30;-3.70;99.90
12887;DHT22;6511;49.746;6.094;2023-03-03T03:57:56;-3.70;99.90
12887;DHT22;6511;49.746;6.094;2023-03-03T04:00:22;-3.80;99.90
12887;DHT22;6511;49.746;6.094;2023-03-03T04:02:48;-3.80;99.90
12887;DHT22;6511;49.746;6.094;2023-03-03T04:05:14;-3.70;99.90
12887;DHT22;6511;49.746;6.094;2023-03-03T04:07:40;-3.80;99.90
12887;DHT22;6511;49.746;6.094;2023-03-03T04:10:05;-3.70;99.90
12887;DHT22;6511;49.746;6.094;2023-03-03T04:12:31;-3.70;99.90
12887;DHT22;6511;49.746;6.094;2023-03-03T04:15:11;-3.70;99.90
12887;DHT22;6511;49.746;6.094;2023-03-03T04:17:37;-3.70;99.90
12887;DHT22;6511;49.746;6.094;2023-03-03T04:20:04;-3.70;99.90
12887;DHT22;6511;49.746;6.094;2023-03-03T04:22:31;-3.70;99.90
12887;DHT22;6511;49.746;6.094;2023-03-03T04:25:03;-3.70;99.90
12887;DHT22;6511;49.746;6.094;2023-03-03T04:27:34;-3.60;99.90
12887;DHT22;6511;49.746;6.094;2023-03-03T04:30:00;-3.50;99.90
12887;DHT22;6511;49.746;6.094;2023-03-03T04:32:26;-3.50;99.90
12887;DHT22;6511;49.746;6.094;2023-03-03T04:34:52;-3.50;99.90
12887;DHT22;6511;49.746;6.094;2023-03-03T04:37:18;-3.80;99.90
12887;DHT22;6511;49.746;6.094;2023-03-03T04:39:44;-3.90;99.90
12887;DHT22;6511;49.746;6.094;2023-03-03T04:42:10;-3.90;99.90
12887;DHT22;6511;49.746;6.094;2023-03-03T04:44:36;-3.90;99.90
12887;DHT22;6511;49.746;6.094;2023-03-03T04:47:01;-3.80;99.90
12887;DHT22;6511;49.746;6.094;2023-03-03T04:49:27;-3.70;99.90
12887;DHT22;6511;49.746;6.094;2023-03-03T04:51:53;-3.70;99.90
12887;DHT22;6511;49.746;6.094;2023-03-03T04:54:18;-3.70;99.90
12887;DHT22;6511;49.746;6.094;2023-03-03T04:56:44;-3.60;99.90
12887;DHT22;6511;49.746;6.094;2023-03-03T04:59:10;-3.80;99.90
12887;DHT22;6511;49.746;6.094;2023-03-03T05:01:35;-3.90;99.90
12887;DHT22;6511;49.746;6.094;2023-03-03T05:04:01;-3.90;99.90
12887;DHT22;6511;49.746;6.094;2023-03-03T05:06:27;-3.80;99.90
12887;DHT22;6511;49.746;6.094;2023-03-03T05:08:52;-3.80;99.90
12887;DHT22;6511;49.746;6.094;2023-03-03T05:11:20;-3.90;99.90
12887;DHT22;6511;49.746;6.094;2023-03-03T05:13:45;-3.90;99.90
12887;DHT22;6511;49.746;6.094;2023-03-03T05:16:11;-3.90;99.90
12887;DHT22;6511;49.746;6.094;2023-03-03T05:18:37;-3.80;99.90
12887;DHT22;6511;49.746;6.094;2023-03-03T05:21:03;-3.80;99.90
12887;DHT22;6511;49.746;6.094;2023-03-03T05:23:28;-3.80;99.90
12887;DHT22;6511;49.746;6.094;2023-03-03T05:25:54;-3.90;99.90
12887;DHT22;6511;49.746;6.094;2023-03-03T05:28:20;-4.00;99.90
12887;DHT22;6511;49.746;6.094;2023-03-03T05:30:45;-4.00;99.90
12887;DHT22;6511;49.746;6.094;2023-03-03T05:33:13;-4.00;99.90
12887;DHT22;6511;49.746;6.094;2023-03-03T05:35:38;-3.90;99.90
12887;DHT22;6511;49.746;6.094;2023-03-03T05:38:04;-3.90;99.90
12887;DHT22;6511;49.746;6.094;2023-03-03T05:40:30;-4.10;99.90
12887;DHT22;6511;49.746;6.094;2023-03-03T05:42:55;-4.10;99.90
12887;DHT22;6511;49.746;6.094;2023-03-03T05:45:21;-4.20;99.90
12887;DHT22;6511;49.746;6.094;2023-03-03T05:47:49;-4.10;99.90
12887;DHT22;6511;49.746;6.094;2023-03-03T05:50:15;-4.10;99.90
12887;DHT22;6511;49.746;6.094;2023-03-03T05:52:41;-4.20;99.90
12887;DHT22;6511;49.746;6.094;2023-03-03T05:55:07;-4.20;99.90
12887;DHT22;6511;49.746;6.094;2023-03-03T05:57:33;-4.10;99.90
12887;DHT22;6511;49.746;6.094;2023-03-03T06:00:00;-4.20;99.90
12887;DHT22;6511;49.746;6.094;2023-03-03T06:02:26;-4.20;99.90
12887;DHT22;6511;49.746;6.094;2023-03-03T06:04:52;-4.10;99.90
12887;DHT22;6511;49.746;6.094;2023-03-03T06:07:17;-4.10;99.90
12887;DHT22;6511;49.746;6.094;2023-03-03T06:09:43;-4.10;99.90
12887;DHT22;6511;49.746;6.094;2023-03-03T06:12:08;-4.10;99.90
12887;DHT22;6511;49.746;6.094;2023-03-03T06:14:36;-4.10;99.90
12887;DHT22;6511;49.746;6.094;2023-03-03T06:17:01;-4.00;99.90
12887;DHT22;6511;49.746;6.094;2023-03-03T06:19:27;-4.00;99.90
12887;DHT22;6511;49.746;6.094;2023-03-03T06:21:52;-3.90;99.90
12887;DHT22;6511;49.746;6.094;2023-03-03T06:24:18;-4.00;99.90
12887;DHT22;6511;49.746;6.094;2023-03-03T06:26:44;-4.00;99.90
12887;DHT22;6511;49.746;6.094;2023-03-03T06:29:09;-4.10;99.90
12887;DHT22;6511;49.746;6.094;2023-03-03T06:31:35;-4.10;99.90
12887;DHT22;6511;49.746;6.094;2023-03-03T06:34:01;-4.20;99.90
12887;DHT22;6511;49.746;6.094;2023-03-03T06:36:26;-4.20;99.90
12887;DHT22;6511;49.746;6.094;2023-03-03T06:38:52;-4.20;99.90
12887;DHT22;6511;49.746;6.094;2023-03-03T06:41:18;-4.20;99.90
12887;DHT22;6511;49.746;6.094;2023-03-03T06:43:43;-4.10;99.90
12887;DHT22;6511;49.746;6.094;2023-03-03T06:46:09;-4.10;99.90
12887;DHT22;6511;49.746;6.094;2023-03-03T06:48:35;-4.10;99.90
12887;DHT22;6511;49.746;6.094;2023-03-03T06:51:02;-4.10;99.90
12887;DHT22;6511;49.746;6.094;2023-03-03T06:53:31;-4.00;99.90
12887;DHT22;6511;49.746;6.094;2023-03-03T06:55:57;-4.00;99.90
12887;DHT22;6511;49.746;6.094;2023-03-03T06:58:24;-4.00;99.90
12887;DHT22;6511;49.746;6.094;2023-03-03T07:00:55;-4.00;99.90
12887;DHT22;6511;49.746;6.094;2023-03-03T07:03:41;-3.90;99.90
12887;DHT22;6511;49.746;6.094;2023-03-03T07:06:27;-3.90;99.90
12887;DHT22;6511;49.746;6.094;2023-03-03T07:08:54;-3.80;99.90
12887;DHT22;6511;49.746;6.094;2023-03-03T07:11:23;-3.70;99.90
12887;DHT22;6511;49.746;6.094;2023-03-03T07:13:50;-3.70;99.90
12887;DHT22;6511;49.746;6.094;2023-03-03T07:16:17;-3.50;99.90
12887;DHT22;6511;49.746;6.094;2023-03-03T07:21:22;-3.30;99.90
12887;DHT22;6511;49.746;6.094;2023-03-03T07:23:51;-3.30;99.90
12887;DHT22;6511;49.746;6.094;2023-03-03T07:29:02;-3.10;99.90
12887;DHT22;6511;49.746;6.094;2023-03-03T07:31:36;-3.10;99.90
12887;DHT22;6511;49.746;6.094;2023-03-03T07:34:26;-3.00;99.90
12887;DHT22;6511;49.746;6.094;2023-03-03T07:36:58;-2.90;99.90
12887;DHT22;6511;49.746;6.094;2023-03-03T07:39:35;-2.80;99.90
12887;DHT22;6511;49.746;6.094;2023-03-03T07:42:13;-2.70;99.90
12887;DHT22;6511;49.746;6.094;2023-03-03T07:44:41;-2.60;99.90
12887;DHT22;6511;49.746;6.094;2023-03-03T07:47:18;-2.50;99.90
12887;DHT22;6511;49.746;6.094;2023-03-03T07:49:46;-2.50;99.90
12887;DHT22;6511;49.746;6.094;2023-03-03T07:52:32;-2.30;99.90
12887;DHT22;6511;49.746;6.094;2023-03-03T07:55:25;-2.20;99.90
12887;DHT22;6511;49.746;6.094;2023-03-03T07:57:53;-2.20;99.90
12887;DHT22;6511;49.746;6.094;2023-03-03T08:02:54;-2.00;99.90
12887;DHT22;6511;49.746;6.094;2023-03-03T08:05:41;-1.90;99.90
12887;DHT22;6511;49.746;6.094;2023-03-03T08:08:32;-1.80;99.90
12887;DHT22;6511;49.746;6.094;2023-03-03T08:11:01;-1.70;99.90
12887;DHT22;6511;49.746;6.094;2023-03-03T08:16:37;-1.50;99.90
12887;DHT22;6511;49.746;6.094;2023-03-03T08:19:04;-1.40;99.90
12887;DHT22;6511;49.746;6.094;2023-03-03T08:21:30;-1.20;99.90
12887;DHT22;6511;49.746;6.094;2023-03-03T08:23:57;-1.10;99.90
12887;DHT22;6511;49.746;6.094;2023-03-03T08:26:24;-0.90;99.90
12887;DHT22;6511;49.746;6.094;2023-03-03T08:28:50;-0.70;99.90
12887;DHT22;6511;49.746;6.094;2023-03-03T08:31:16;-0.50;99.90
12887;DHT22;6511;49.746;6.094;2023-03-03T08:33:43;-0.30;99.90
12887;DHT22;6511;49.746;6.094;2023-03-03T08:36:09;-0.10;99.90
12887;DHT22;6511;49.746;6.094;2023-03-03T08:38:35;0.00;99.90
12887;DHT22;6511;49.746;6.094;2023-03-03T08:41:01;0.20;99.90
12887;DHT22;6511;49.746;6.094;2023-03-03T08:43:26;0.40;99.90
12887;DHT22;6511;49.746;6.094;2023-03-03T08:45:57;0.60;99.90
12887;DHT22;6511;49.746;6.094;2023-03-03T08:48:24;0.60;99.90
12887;DHT22;6511;49.746;6.094;2023-03-03T08:50:49;0.80;99.90
12887;DHT22;6511;49.746;6.094;2023-03-03T08:53:16;0.80;99.90
12887;DHT22;6511;49.746;6.094;2023-03-03T08:55:42;1.00;99.90
12887;DHT22;6511;49.746;6.094;2023-03-03T08:58:08;1.10;99.90
12887;DHT22;6511;49.746;6.094;2023-03-03T09:00:34;1.10;99.90
12887;DHT22;6511;49.746;6.094;2023-03-03T09:03:00;1.20;99.90
12887;DHT22;6511;49.746;6.094;2023-03-03T09:05:26;1.30;99.90
12887;DHT22;6511;49.746;6.094;2023-03-03T09:07:53;1.50;99.90
12887;DHT22;6511;49.746;6.094;2023-03-03T09:10:23;1.50;99.90
12887;DHT22;6511;49.746;6.094;2023-03-03T09:12:52;1.50;99.90
12887;DHT22;6511;49.746;6.094;2023-03-03T09:18:21;1.70;99.90
12887;DHT22;6511;49.746;6.094;2023-03-03T09:20:48;1.80;99.90
12887;DHT22;6511;49.746;6.094;2023-03-03T09:25:46;2.00;99.90
12887;DHT22;6511;49.746;6.094;2023-03-03T09:28:28;2.20;99.90
12887;DHT22;6511;49.746;6.094;2023-03-03T09:30:57;2.20;99.90
12887;DHT22;6511;49.746;6.094;2023-03-03T09:36:24;2.30;99.90
12887;DHT22;6511;49.746;6.094;2023-03-03T09:38:50;2.40;99.90
12887;DHT22;6511;49.746;6.094;2023-03-03T09:41:47;2.60;99.90
12887;DHT22;6511;49.746;6.094;2023-03-03T09:50:33;2.70;99.90
12887;DHT22;6511;49.746;6.094;2023-03-03T10:01:50;3.00;99.90
12887;DHT22;6511;49.746;6.094;2023-03-03T10:16:28;3.30;99.90
12887;DHT22;6511;49.746;6.094;2023-03-03T10:19:02;3.50;99.90
12887;DHT22;6511;49.746;6.094;2023-03-03T10:21:35;3.60;99.90
12887;DHT22;6511;49.746;6.094;2023-03-03T10:40:15;3.90;99.90
12887;DHT22;6511;49.746;6.094;2023-03-03T11:07:45;4.70;99.90
12887;DHT22;6511;49.746;6.094;2023-03-03T11:15:58;4.90;99.90
12887;DHT22;6511;49.746;6.094;2023-03-03T11:19:04;4.90;99.90
12887;DHT22;6511;49.746;6.094;2023-03-03T11:21:54;5.10;99.90
12887;DHT22;6511;49.746;6.094;2023-03-03T11:27:49;5.20;99.90
12887;DHT22;6511;49.746;6.094;2023-03-03T11:38:38;5.50;99.90
12887;DHT22;6511;49.746;6.094;2023-03-03T11:55:18;5.90;99.90
12887;DHT22;6511;49.746;6.094;2023-03-03T11:58:13;6.00;99.90
12887;DHT22;6511;49.746;6.094;2023-03-03T12:00:53;6.10;99.90
12887;DHT22;6511;49.746;6.094;2023-03-03T12:06:37;6.10;99.90
12887;DHT22;6511;49.746;6.094;2023-03-03T12:09:26;6.20;99.90
12887;DHT22;6511;49.746;6.094;2023-03-03T12:12:02;6.20;99.90
12887;DHT22;6511;49.746;6.094;2023-03-03T12:15:01;6.20;99.90
12887;DHT22;6511;49.746;6.094;2023-03-03T12:26:11;6.60;99.90
12887;DHT22;6511;49.746;6.094;2023-03-03T12:28:49;6.60;99.90
12887;DHT22;6511;49.746;6.094;2023-03-03T12:34:24;7.00;99.90
12887;DHT22;6511;49.746;6.094;2023-03-03T12:54:24;7.40;99.90
12887;DHT22;6511;49.746;6.094;2023-03-03T12:56:55;7.60;99.90
12887;DHT22;6511;49.746;6.094;2023-03-03T13:07:33;7.80;99.90
12887;DHT22;6511;49.746;6.094;2023-03-03T13:15:25;7.80;99.90
12887;DHT22;6511;49.746;6.094;2023-03-03T13:18:20;7.80;99.90
12887;DHT22;6511;49.746;6.094;2023-03-03T13:21:10;8.00;99.90
12887;DHT22;6511;49.746;6.094;2023-03-03T13:26:34;7.90;99.90
12887;DHT22;6511;49.746;6.094;2023-03-03T13:29:28;8.00;99.90
12887;DHT22;6511;49.746;6.094;2023-03-03T13:31:56;8.20;99.90
12887;DHT22;6511;49.746;6.094;2023-03-03T13:34:42;8.10;99.90
12887;DHT22;6511;49.746;6.094;2023-03-03T13:45:29;8.10;99.90
12887;DHT22;6511;49.746;6.094;2023-03-03T13:48:40;8.30;99.90
12887;DHT22;6511;49.746;6.094;2023-03-03T13:51:22;8.30;99.90
12887;DHT22;6511;49.746;6.094;2023-03-03T13:56:48;8.30;99.90
12887;DHT22;6511;49.746;6.094;2023-03-03T14:05:04;8.30;99.90
12887;DHT22;6511;49.746;6.094;2023-03-03T14:07:49;8.20;99.90
12887;DHT22;6511;49.746;6.094;2023-03-03T14:10:39;8.30;99.90
12887;DHT22;6511;49.746;6.094;2023-03-03T14:13:25;8.50;99.90
12887;DHT22;6511;49.746;6.094;2023-03-03T14:16:03;8.50;99.90
12887;DHT22;6511;49.746;6.094;2023-03-03T14:21:11;8.40;99.90
12887;DHT22;6511;49.746;6.094;2023-03-03T14:26:26;8.40;99.90
12887;DHT22;6511;49.746;6.094;2023-03-03T14:31:57;8.70;99.90
12887;DHT22;6511;49.746;6.094;2023-03-03T14:34:25;8.60;99.90
12887;DHT22;6511;49.746;6.094;2023-03-03T14:37:07;8.50;99.90
12887;DHT22;6511;49.746;6.094;2023-03-03T14:39:35;8.60;99.90
12887;DHT22;6511;49.746;6.094;2023-03-03T14:42:11;8.60;99.90
12887;DHT22;6511;49.746;6.094;2023-03-03T14:44:53;8.60;99.90
12887;DHT22;6511;49.746;6.094;2023-03-03T14:47:25;8.70;99.90
12887;DHT22;6511;49.746;6.094;2023-03-03T14:49:55;8.60;99.90
12887;DHT22;6511;49.746;6.094;2023-03-03T14:52:33;8.60;99.90
12887;DHT22;6511;49.746;6.094;2023-03-03T14:55:01;8.70;99.90
12887;DHT22;6511;49.746;6.094;2023-03-03T15:02:58;8.80;99.90
12887;DHT22;6511;49.746;6.094;2023-03-03T15:05:30;8.80;99.90
12887;DHT22;6511;49.746;6.094;2023-03-03T15:12:55;8.70;99.90
12887;DHT22;6511;49.746;6.094;2023-03-03T15:15:24;8.60;99.90
12887;DHT22;6511;49.746;6.094;2023-03-03T15:25:38;8.70;99.90
12887;DHT22;6511;49.746;6.094;2023-03-03T15:30:52;8.80;99.90
12887;DHT22;6511;49.746;6.094;2023-03-03T15:33:31;8.70;99.90
12887;DHT22;6511;49.746;6.094;2023-03-03T15:36:02;8.70;99.90
12887;DHT22;6511;49.746;6.094;2023-03-03T15:38:36;8.70;99.90
12887;DHT22;6511;49.746;6.094;2023-03-03T15:41:40;8.70;99.90
12887;DHT22;6511;49.746;6.094;2023-03-03T15:44:21;8.80;99.90
12887;DHT22;6511;49.746;6.094;2023-03-03T15:57:57;8.70;99.90
12887;DHT22;6511;49.746;6.094;2023-03-03T16:00:48;8.70;99.90
12887;DHT22;6511;49.746;6.094;2023-03-03T16:03:25;8.70;99.90
12887;DHT22;6511;49.746;6.094;2023-03-03T16:09:02;8.60;99.90
12887;DHT22;6511;49.746;6.094;2023-03-03T16:11:48;8.60;99.90
12887;DHT22;6511;49.746;6.094;2023-03-03T16:17:37;8.60;99.90
12887;DHT22;6511;49.746;6.094;2023-03-03T16:20:31;8.60;99.90
12887;DHT22;6511;49.746;6.094;2023-03-03T16:23:30;8.60;99.90
12887;DHT22;6511;49.746;6.094;2023-03-03T16:31:57;8.40;99.90
12887;DHT22;6511;49.746;6.094;2023-03-03T16:34:35;8.40;99.90
12887;DHT22;6511;49.746;6.094;2023-03-03T16:40:12;8.30;99.90
12887;DHT22;6511;49.746;6.094;2023-03-03T16:42:39;8.30;99.90
12887;DHT22;6511;49.746;6.094;2023-03-03T16:45:26;8.20;99.90
12887;DHT22;6511;49.746;6.094;2023-03-03T16:47:57;8.20;99.90
12887;DHT22;6511;49.746;6.094;2023-03-03T16:50:54;8.20;99.90
12887;DHT22;6511;49.746;6.094;2023-03-03T16:58:54;8.10;99.90
12887;DHT22;6511;49.746;6.094;2023-03-03T17:17:03;7.30;99.90
12887;DHT22;6511;49.746;6.094;2023-03-03T17:30:47;6.40;99.90
12887;DHT22;6511;49.746;6.094;2023-03-03T17:33:48;6.30;99.90
12887;DHT22;6511;49.746;6.094;2023-03-03T17:39:59;6.20;99.90
12887;DHT22;6511;49.746;6.094;2023-03-03T17:50:08;5.90;99.90
12887;DHT22;6511;49.746;6.094;2023-03-03T17:52:51;5.80;99.90
12887;DHT22;6511;49.746;6.094;2023-03-03T18:11:58;4.70;99.90
12887;DHT22;6511;49.746;6.094;2023-03-03T18:14:30;4.60;99.90
12887;DHT22;6511;49.746;6.094;2023-03-03T18:17:32;4.50;99.90
12887;DHT22;6511;49.746;6.094;2023-03-03T18:22:45;4.40;99.90
12887;DHT22;6511;49.746;6.094;2023-03-03T18:25:14;4.40;99.90
12887;DHT22;6511;49.746;6.094;2023-03-03T18:27:44;4.30;99.90
12887;DHT22;6511;49.746;6.094;2023-03-03T18:32:46;4.20;99.90
12887;DHT22;6511;49.746;6.094;2023-03-03T18:35:41;4.10;99.90
12887;DHT22;6511;49.746;6.094;2023-03-03T18:43:57;3.90;99.90
12887;DHT22;6511;49.746;6.094;2023-03-03T18:48:53;3.40;99.90
12887;DHT22;6511;49.746;6.094;2023-03-03T18:59:51;2.80;99.90
12887;DHT22;6511;49.746;6.094;2023-03-03T19:05:14;3.00;99.90
12887;DHT22;6511;49.746;6.094;2023-03-03T19:12:51;2.90;99.90
12887;DHT22;6511;49.746;6.094;2023-03-03T19:18:35;2.80;99.90
12887;DHT22;6511;49.746;6.094;2023-03-03T19:20:57;2.80;99.90
12887;DHT22;6511;49.746;6.094;2023-03-03T19:26:46;2.60;99.90
12887;DHT22;6511;49.746;6.094;2023-03-03T19:38:05;2.20;99.90
12887;DHT22;6511;49.746;6.094;2023-03-03T19:53:45;1.70;99.90
12887;DHT22;6511;49.746;6.094;2023-03-03T19:56:25;1.60;99.90
12887;DHT22;6511;49.746;6.094;2023-03-03T20:01:46;1.50;99.90
12887;DHT22;6511;49.746;6.094;2023-03-03T20:26:25;0.80;99.90
12887;DHT22;6511;49.746;6.094;2023-03-03T20:30:03;0.80;99.90
12887;DHT22;6511;49.746;6.094;2023-03-03T20:54:47;0.20;99.90
12887;DHT22;6511;49.746;6.094;2023-03-03T21:00:02;0.10;99.90
12887;DHT22;6511;49.746;6.094;2023-03-03T21:02:34;0.00;99.90
12887;DHT22;6511;49.746;6.094;2023-03-03T21:05:21;-0.10;99.90
12887;DHT22;6511;49.746;6.094;2023-03-03T21:10:23;-0.20;99.90
12887;DHT22;6511;49.746;6.094;2023-03-03T21:12:54;-0.20;99.90
12887;DHT22;6511;49.746;6.094;2023-03-03T21:15:40;-0.20;99.90
12887;DHT22;6511;49.746;6.094;2023-03-03T21:18:32;-0.20;99.90
12887;DHT22;6511;49.746;6.094;2023-03-03T21:20:57;-0.30;99.90
12887;DHT22;6511;49.746;6.094;2023-03-03T21:23:23;-0.40;99.90
12887;DHT22;6511;49.746;6.094;2023-03-03T21:25:51;-0.50;99.90
12887;DHT22;6511;49.746;6.094;2023-03-03T21:28:20;-0.60;99.90
12887;DHT22;6511;49.746;6.094;2023-03-03T21:33:43;-0.70;99.90
12887;DHT22;6511;49.746;6.094;2023-03-03T21:36:16;-0.70;99.90
12887;DHT22;6511;49.746;6.094;2023-03-03T21:38:44;-0.70;99.90
12887;DHT22;6511;49.746;6.094;2023-03-03T21:41:11;-0.70;99.90
12887;DHT22;6511;49.746;6.094;2023-03-03T21:43:40;-0.80;99.90
12887;DHT22;6511;49.746;6.094;2023-03-03T21:46:06;-0.80;99.90
12887;DHT22;6511;49.746;6.094;2023-03-03T21:48:32;-0.90;99.90
12887;DHT22;6511;49.746;6.094;2023-03-03T21:50:58;-0.80;99.90
12887;DHT22;6511;49.746;6.094;2023-03-03T21:53:27;-0.90;99.90
12887;DHT22;6511;49.746;6.094;2023-03-03T21:55:54;-0.90;99.90
12887;DHT22;6511;49.746;6.094;2023-03-03T21:58:20;-0.90;99.90
12887;DHT22;6511;49.746;6.094;2023-03-03T22:00:46;-1.00;99.90
12887;DHT22;6511;49.746;6.094;2023-03-03T22:03:11;-1.00;99.90
12887;DHT22;6511;49.746;6.094;2023-03-03T22:05:38;-1.10;99.90
12887;DHT22;6511;49.746;6.094;2023-03-03T22:08:05;-1.10;99.90
12887;DHT22;6511;49.746;6.094;2023-03-03T22:10:31;-1.20;99.90
12887;DHT22;6511;49.746;6.094;2023-03-03T22:12:56;-1.10;99.90
12887;DHT22;6511;49.746;6.094;2023-03-03T22:15:22;-1.20;99.90
12887;DHT22;6511;49.746;6.094;2023-03-03T22:17:47;-1.10;99.90
12887;DHT22;6511;49.746;6.094;2023-03-03T22:20:13;-1.20;99.90
12887;DHT22;6511;49.746;6.094;2023-03-03T22:22:42;-1.20;99.90
12887;DHT22;6511;49.746;6.094;2023-03-03T22:25:09;-1.20;99.90
12887;DHT22;6511;49.746;6.094;2023-03-03T22:27:34;-1.20;99.90
12887;DHT22;6511;49.746;6.094;2023-03-03T22:30:00;-1.20;99.90
12887;DHT22;6511;49.746;6.094;2023-03-03T22:32:26;-1.20;99.90
12887;DHT22;6511;49.746;6.094;2023-03-03T22:34:52;-1.20;99.90
12887;DHT22;6511;49.746;6.094;2023-03-03T22:37:18;-1.30;99.90
12887;DHT22;6511;49.746;6.094;2023-03-03T22:39:44;-1.20;99.90
12887;DHT22;6511;49.746;6.094;2023-03-03T22:42:09;-1.30;99.90
12887;DHT22;6511;49.746;6.094;2023-03-03T22:44:35;-1.30;99.90
12887;DHT22;6511;49.746;6.094;2023-03-03T22:47:01;-1.30;99.90
12887;DHT22;6511;49.746;6.094;2023-03-03T22:49:27;-1.40;99.90
12887;DHT22;6511;49.746;6.094;2023-03-03T22:51:53;-1.40;99.90
12887;DHT22;6511;49.746;6.094;2023-03-03T22:54:18;-1.40;99.90
12887;DHT22;6511;49.746;6.094;2023-03-03T22:56:44;-1.40;99.90
12887;DHT22;6511;49.746;6.094;2023-03-03T22:59:09;-1.40;99.90
12887;DHT22;6511;49.746;6.094;2023-03-03T23:01:35;-1.40;99.90
12887;DHT22;6511;49.746;6.094;2023-03-03T23:04:00;-1.40;99.90
12887;DHT22;6511;49.746;6.094;2023-03-03T23:06:26;-1.40;99.90
12887;DHT22;6511;49.746;6.094;2023-03-03T23:08:51;-1.40;99.90
12887;DHT22;6511;49.746;6.094;2023-03-03T23:11:17;-1.40;99.90
12887;DHT22;6511;49.746;6.094;2023-03-03T23:13:43;-1.70;99.90
12887;DHT22;6511;49.746;6.094;2023-03-03T23:16:08;-1.90;99.90
12887;DHT22;6511;49.746;6.094;2023-03-03T23:18:34;-2.00;99.90
12887;DHT22;6511;49.746;6.094;2023-03-03T23:20:59;-2.20;99.90